sensor_id;sensor_type;location;lat;lon;timestamp;temperature;humidity
23371;DHT22;11858;51.056;3.712;2024-01-25T00:02:08;9.00;99.90
23371;DHT22;11858;51.056;3.712;2024-01-25T00:04:34;9.00;99.90
23371;DHT22;11858;51.056;3.712;2024-01-25T00:06:59;8.90;99.90
23371;DHT22;11858;51.056;3.712;2024-01-25T00:09:25;8.80;99.90
23371;DHT22;11858;51.056;3.712;2024-01-25T00:11:51;8.80;99.90
23371;DHT22;11858;51.056;3.712;2024-01-25T00:14:16;8.80;99.90
23371;DHT22;11858;51.056;3.712;2024-01-25T00:16:42;8.70;99.90
23371;DHT22;11858;51.056;3.712;2024-01-25T00:19:08;8.80;99.90
23371;DHT22;11858;51.056;3.712;2024-01-25T00:21:33;8.70;99.90
23371;DHT22;11858;51.056;3.712;2024-01-25T00:23:59;8.70;99.90
23371;DHT22;11858;51.056;3.712;2024-01-25T00:26:25;8.70;99.90
23371;DHT22;11858;51.056;3.712;2024-01-25T00:28:50;8.60;99.90
23371;DHT22;11858;51.056;3.712;2024-01-25T00:31:16;8.50;99.90
23371;DHT22;11858;51.056;3.712;2024-01-25T00:33:41;8.70;99.90
23371;DHT22;11858;51.056;3.712;2024-01-25T00:36:08;8.70;99.90
23371;DHT22;11858;51.056;3.712;2024-01-25T00:38:33;8.70;99.90
23371;DHT22;11858;51.056;3.712;2024-01-25T00:41:00;8.50;99.90
23371;DHT22;11858;51.056;3.712;2024-01-25T00:43:26;8.50;99.90
23371;DHT22;11858;51.056;3.712;2024-01-25T00:45:52;8.60;99.90
23371;DHT22;11858;51.056;3.712;2024-01-25T00:48:18;8.50;99.90
23371;DHT22;11858;51.056;3.712;2024-01-25T00:50:44;8.50;99.90
23371;DHT22;11858;51.056;3.712;2024-01-25T00:53:10;8.40;99.90
23371;DHT22;11858;51.056;3.712;2024-01-25T00:55:36;8.60;99.90
23371;DHT22;11858;51.056;3.712;2024-01-25T00:58:02;8.70;99.90
23371;DHT22;11858;51.056;3.712;2024-01-25T01:00:28;8.60;99.90
23371;DHT22;11858;51.056;3.712;2024-01-25T01:02:54;8.50;99.90
23371;DHT22;11858;51.056;3.712;2024-01-25T01:05:20;8.40;99.90
23371;DHT22;11858;51.056;3.712;2024-01-25T01:07:46;8.30;99.90
23371;DHT22;11858;51.056;3.712;2024-01-25T01:10:12;8.30;99.90
23371;DHT22;11858;51.056;3.712;2024-01-25T01:12:39;8.30;99.90
23371;DHT22;11858;51.056;3.712;2024-01-25T01:15:05;8.30;99.90
23371;DHT22;11858;51.056;3.712;2024-01-25T01:17:31;8.30;99.90
23371;DHT22;11858;51.056;3.712;2024-01-25T01:19:56;8.20;99.90
23371;DHT22;11858;51.056;3.712;2024-01-25T01:22:22;8.10;99.90
23371;DHT22;11858;51.056;3.712;2024-01-25T01:24:48;8.00;99.90
23371;DHT22;11858;51.056;3.712;2024-01-25T01:27:13;8.20;99.90
23371;DHT22;11858;51.056;3.712;2024-01-25T01:29:39;8.30;99.90
23371;DHT22;11858;51.056;3.712;2024-01-25T01:32:05;8.30;99.90
23371;DHT22;11858;51.056;3.712;2024-01-25T01:34:30;8.30;99.90
23371;DHT22;11858;51.056;3.712;2024-01-25T01:36:56;8.10;99.90
23371;DHT22;11858;51.056;3.712;2024-01-25T01:39:22;8.00;99.90
23371;DHT22;11858;51.056;3.712;2024-01-25T01:41:48;8.00;99.90
23371;DHT22;11858;51.056;3.712;2024-01-25T01:44:14;8.20;99.90
23371;DHT22;11858;51.056;3.712;2024-01-25T01:46:40;8.20;99.90
23371;DHT22;11858;51.056;3.712;2024-01-25T01:49:09;8.20;99.90
23371;DHT22;11858;51.056;3.712;2024-01-25T01:51:36;8.00;99.90
23371;DHT22;11858;51.056;3.712;2024-01-25T01:54:02;8.00;99.90
23371;DHT22;11858;51.056;3.712;2024-01-25T01:56:28;8.00;99.90
23371;DHT22;11858;51.056;3.712;2024-01-25T01:58:58;7.70;99.90
23371;DHT22;11858;51.056;3.712;2024-01-25T02:01:25;7.70;99.90
23371;DHT22;11858;51.056;3.712;2024-01-25T02:03:51;7.70;99.90
23371;DHT22;11858;51.056;3.712;2024-01-25T02:06:17;7.70;99.90
23371;DHT22;11858;51.056;3.712;2024-01-25T02:08:43;7.70;99.90
23371;DHT22;11858;51.056;3.712;2024-01-25T02:11:12;7.70;99.90
23371;DHT22;11858;51.056;3.712;2024-01-25T02:13:38;7.60;99.90
23371;DHT22;11858;51.056;3.712;2024-01-25T02:16:04;7.60;99.90
23371;DHT22;11858;51.056;3.712;2024-01-25T02:18:31;7.70;99.90
23371;DHT22;11858;51.056;3.712;2024-01-25T02:20:56;7.70;99.90
23371;DHT22;11858;51.056;3.712;2024-01-25T02:23:22;7.60;99.90
23371;DHT22;11858;51.056;3.712;2024-01-25T02:25:47;7.50;99.90
23371;DHT22;11858;51.056;3.712;2024-01-25T02:28:13;7.40;99.90
23371;DHT22;11858;51.056;3.712;2024-01-25T02:30:39;7.40;99.90
23371;DHT22;11858;51.056;3.712;2024-01-25T02:33:05;7.60;99.90
23371;DHT22;11858;51.056;3.712;2024-01-25T02:35:30;7.60;99.90
23371;DHT22;11858;51.056;3.712;2024-01-25T02:37:56;7.50;99.90
23371;DHT22;11858;51.056;3.712;2024-01-25T02:40:22;7.40;99.90
23371;DHT22;11858;51.056;3.712;2024-01-25T02:42:47;7.20;99.90
23371;DHT22;11858;51.056;3.712;2024-01-25T02:45:13;7.20;99.90
23371;DHT22;11858;51.056;3.712;2024-01-25T02:47:39;7.30;99.90
23371;DHT22;11858;51.056;3.712;2024-01-25T02:50:05;7.40;99.90
23371;DHT22;11858;51.056;3.712;2024-01-25T02:52:31;7.30;99.90
23371;DHT22;11858;51.056;3.712;2024-01-25T02:54:56;7.30;99.90
23371;DHT22;11858;51.056;3.712;2024-01-25T02:57:23;7.30;99.90
23371;DHT22;11858;51.056;3.712;2024-01-25T02:59:48;7.30;99.90
23371;DHT22;11858;51.056;3.712;2024-01-25T03:02:14;7.30;99.90
23371;DHT22;11858;51.056;3.712;2024-01-25T03:04:42;7.20;99.90
23371;DHT22;11858;51.056;3.712;2024-01-25T03:07:07;7.30;99.90
23371;DHT22;11858;51.056;3.712;2024-01-25T03:09:33;7.50;99.90
23371;DHT22;11858;51.056;3.712;2024-01-25T03:11:59;7.30;99.90
23371;DHT22;11858;51.056;3.712;2024-01-25T03:14:24;7.30;99.90
23371;DHT22;11858;51.056;3.712;2024-01-25T03:16:50;7.40;99.90
23371;DHT22;11858;51.056;3.712;2024-01-25T03:19:15;7.30;99.90
23371;DHT22;11858;51.056;3.712;2024-01-25T03:21:41;7.30;99.90
23371;DHT22;11858;51.056;3.712;2024-01-25T03:24:06;7.30;99.90
23371;DHT22;11858;51.056;3.712;2024-01-25T03:26:32;7.30;99.90
23371;DHT22;11858;51.056;3.712;2024-01-25T03:28:58;7.10;99.90
23371;DHT22;11858;51.056;3.712;2024-01-25T03:31:23;7.30;99.90
23371;DHT22;11858;51.056;3.712;2024-01-25T03:33:49;7.20;99.90
23371;DHT22;11858;51.056;3.712;2024-01-25T03:36:14;7.30;99.90
23371;DHT22;11858;51.056;3.712;2024-01-25T03:38:41;7.20;99.90
23371;DHT22;11858;51.056;3.712;2024-01-25T03:41:07;7.10;99.90
23371;DHT22;11858;51.056;3.712;2024-01-25T03:43:32;6.90;99.90
23371;DHT22;11858;51.056;3.712;2024-01-25T03:45:58;6.90;99.90
23371;DHT22;11858;51.056;3.712;2024-01-25T03:48:23;7.10;99.90
23371;DHT22;11858;51.056;3.712;2024-01-25T03:50:49;7.20;99.90
23371;DHT22;11858;51.056;3.712;2024-01-25T03:53:15;7.10;99.90
23371;DHT22;11858;51.056;3.712;2024-01-25T03:55:41;7.00;99.90
23371;DHT22;11858;51.056;3.712;2024-01-25T03:58:07;6.80;99.90
23371;DHT22;11858;51.056;3.712;2024-01-25T04:00:32;6.70;99.90
23371;DHT22;11858;51.056;3.712;2024-01-25T04:02:58;7.10;99.90
23371;DHT22;11858;51.056;3.712;2024-01-25T04:05:24;7.10;99.90
23371;DHT22;11858;51.056;3.712;2024-01-25T04:07:51;7.20;99.90
23371;DHT22;11858;51.056;3.712;2024-01-25T04:10:17;7.00;99.90
23371;DHT22;11858;51.056;3.712;2024-01-25T04:12:43;6.90;99.90
23371;DHT22;11858;51.056;3.712;2024-01-25T04:15:08;6.70;99.90
23371;DHT22;11858;51.056;3.712;2024-01-25T04:17:35;6.50;99.90
23371;DHT22;11858;51.056;3.712;2024-01-25T04:20:00;6.60;99.90
23371;DHT22;11858;51.056;3.712;2024-01-25T04:22:26;6.80;99.90
23371;DHT22;11858;51.056;3.712;2024-01-25T04:24:51;6.90;99.90
23371;DHT22;11858;51.056;3.712;2024-01-25T04:27:17;6.90;99.90
23371;DHT22;11858;51.056;3.712;2024-01-25T04:29:43;6.70;99.90
23371;DHT22;11858;51.056;3.712;2024-01-25T04:32:08;6.60;99.90
23371;DHT22;11858;51.056;3.712;2024-01-25T04:34:35;6.70;99.90
23371;DHT22;11858;51.056;3.712;2024-01-25T04:37:01;6.90;99.90
23371;DHT22;11858;51.056;3.712;2024-01-25T04:39:27;7.00;99.90
23371;DHT22;11858;51.056;3.712;2024-01-25T04:41:53;7.00;99.90
23371;DHT22;11858;51.056;3.712;2024-01-25T04:44:18;6.90;99.90
23371;DHT22;11858;51.056;3.712;2024-01-25T04:46:44;6.80;99.90
23371;DHT22;11858;51.056;3.712;2024-01-25T04:49:10;6.70;99.90
23371;DHT22;11858;51.056;3.712;2024-01-25T04:51:36;6.50;99.90
23371;DHT22;11858;51.056;3.712;2024-01-25T04:54:01;6.50;99.90
23371;DHT22;11858;51.056;3.712;2024-01-25T04:56:28;6.60;99.90
23371;DHT22;11858;51.056;3.712;2024-01-25T04:58:53;6.50;99.90
23371;DHT22;11858;51.056;3.712;2024-01-25T05:01:19;6.50;99.90
23371;DHT22;11858;51.056;3.712;2024-01-25T05:03:45;6.40;99.90
23371;DHT22;11858;51.056;3.712;2024-01-25T05:06:10;6.30;99.90
23371;DHT22;11858;51.056;3.712;2024-01-25T05:08:36;6.30;99.90
23371;DHT22;11858;51.056;3.712;2024-01-25T05:11:01;6.20;99.90
23371;DHT22;11858;51.056;3.712;2024-01-25T05:13:28;6.30;99.90
23371;DHT22;11858;51.056;3.712;2024-01-25T05:15:54;6.30;99.90
23371;DHT22;11858;51.056;3.712;2024-01-25T05:18:20;6.30;99.90
23371;DHT22;11858;51.056;3.712;2024-01-25T05:20:45;6.30;99.90
23371;DHT22;11858;51.056;3.712;2024-01-25T05:23:11;6.40;99.90
23371;DHT22;11858;51.056;3.712;2024-01-25T05:25:37;6.40;99.90
23371;DHT22;11858;51.056;3.712;2024-01-25T05:28:02;6.40;99.90
23371;DHT22;11858;51.056;3.712;2024-01-25T05:30:29;6.40;99.90
23371;DHT22;11858;51.056;3.712;2024-01-25T05:32:55;6.40;99.90
23371;DHT22;11858;51.056;3.712;2024-01-25T05:35:21;6.30;99.90
23371;DHT22;11858;51.056;3.712;2024-01-25T05:37:46;6.40;99.90
23371;DHT22;11858;51.056;3.712;2024-01-25T05:40:12;6.50;99.90
23371;DHT22;11858;51.056;3.712;2024-01-25T05:42:39;6.50;99.90
23371;DHT22;11858;51.056;3.712;2024-01-25T05:45:05;6.50;99.90
23371;DHT22;11858;51.056;3.712;2024-01-25T05:47:32;6.40;99.90
23371;DHT22;11858;51.056;3.712;2024-01-25T05:49:57;6.30;99.90
23371;DHT22;11858;51.056;3.712;2024-01-25T05:52:23;6.20;99.90
23371;DHT22;11858;51.056;3.712;2024-01-25T05:54:52;6.10;99.90
23371;DHT22;11858;51.056;3.712;2024-01-25T05:57:18;6.20;99.90
23371;DHT22;11858;51.056;3.712;2024-01-25T05:59:44;6.30;99.90
23371;DHT22;11858;51.056;3.712;2024-01-25T06:02:10;6.20;99.90
23371;DHT22;11858;51.056;3.712;2024-01-25T06:04:35;6.30;99.90
23371;DHT22;11858;51.056;3.712;2024-01-25T06:07:01;6.20;99.90
23371;DHT22;11858;51.056;3.712;2024-01-25T06:09:28;6.20;99.90
23371;DHT22;11858;51.056;3.712;2024-01-25T06:11:53;6.10;99.90
23371;DHT22;11858;51.056;3.712;2024-01-25T06:14:19;6.10;99.90
23371;DHT22;11858;51.056;3.712;2024-01-25T06:16:45;6.10;99.90
23371;DHT22;11858;51.056;3.712;2024-01-25T06:19:11;6.20;99.90
23371;DHT22;11858;51.056;3.712;2024-01-25T06:21:37;6.30;99.90
23371;DHT22;11858;51.056;3.712;2024-01-25T06:24:04;6.30;99.90
23371;DHT22;11858;51.056;3.712;2024-01-25T06:26:30;6.30;99.90
23371;DHT22;11858;51.056;3.712;2024-01-25T06:28:56;6.20;99.90
23371;DHT22;11858;51.056;3.712;2024-01-25T06:31:25;6.30;99.90
23371;DHT22;11858;51.056;3.712;2024-01-25T06:33:51;6.30;99.90
23371;DHT22;11858;51.056;3.712;2024-01-25T06:36:19;6.40;99.90
23371;DHT22;11858;51.056;3.712;2024-01-25T06:38:44;6.40;99.90
23371;DHT22;11858;51.056;3.712;2024-01-25T06:41:10;6.50;99.90
23371;DHT22;11858;51.056;3.712;2024-01-25T06:43:36;6.60;99.90
23371;DHT22;11858;51.056;3.712;2024-01-25T06:46:01;6.60;99.90
23371;DHT22;11858;51.056;3.712;2024-01-25T06:48:27;6.50;99.90
23371;DHT22;11858;51.056;3.712;2024-01-25T06:50:53;6.40;99.90
23371;DHT22;11858;51.056;3.712;2024-01-25T06:53:19;6.40;99.90
23371;DHT22;11858;51.056;3.712;2024-01-25T06:55:44;6.40;99.90
23371;DHT22;11858;51.056;3.712;2024-01-25T06:58:10;6.30;99.90
23371;DHT22;11858;51.056;3.712;2024-01-25T07:00:36;6.30;99.90
23371;DHT22;11858;51.056;3.712;2024-01-25T07:03:04;6.30;99.90
23371;DHT22;11858;51.056;3.712;2024-01-25T07:05:30;6.30;99.90
23371;DHT22;11858;51.056;3.712;2024-01-25T07:07:59;6.30;99.90
23371;DHT22;11858;51.056;3.712;2024-01-25T07:10:24;6.30;99.90
23371;DHT22;11858;51.056;3.712;2024-01-25T07:12:50;6.40;99.90
23371;DHT22;11858;51.056;3.712;2024-01-25T07:15:16;6.30;99.90
23371;DHT22;11858;51.056;3.712;2024-01-25T07:17:42;6.30;99.90
23371;DHT22;11858;51.056;3.712;2024-01-25T07:20:08;6.30;99.90
23371;DHT22;11858;51.056;3.712;2024-01-25T07:22:34;6.30;99.90
23371;DHT22;11858;51.056;3.712;2024-01-25T07:25:00;6.40;99.90
23371;DHT22;11858;51.056;3.712;2024-01-25T07:27:26;6.60;99.90
23371;DHT22;11858;51.056;3.712;2024-01-25T07:29:51;6.60;99.90
23371;DHT22;11858;51.056;3.712;2024-01-25T07:32:19;6.50;99.90
23371;DHT22;11858;51.056;3.712;2024-01-25T07:34:45;6.70;99.90
23371;DHT22;11858;51.056;3.712;2024-01-25T07:37:12;6.60;99.90
23371;DHT22;11858;51.056;3.712;2024-01-25T07:39:38;6.60;99.90
23371;DHT22;11858;51.056;3.712;2024-01-25T07:42:04;6.50;99.90
23371;DHT22;11858;51.056;3.712;2024-01-25T07:44:30;6.50;99.90
23371;DHT22;11858;51.056;3.712;2024-01-25T07:46:55;6.50;99.90
23371;DHT22;11858;51.056;3.712;2024-01-25T07:49:21;6.50;99.90
23371;DHT22;11858;51.056;3.712;2024-01-25T07:51:47;6.50;99.90
23371;DHT22;11858;51.056;3.712;2024-01-25T07:54:12;6.60;99.90
23371;DHT22;11858;51.056;3.712;2024-01-25T07:56:38;6.60;99.90
23371;DHT22;11858;51.056;3.712;2024-01-25T07:59:04;6.70;99.90
23371;DHT22;11858;51.056;3.712;2024-01-25T08:01:30;6.80;99.90
23371;DHT22;11858;51.056;3.712;2024-01-25T08:03:55;6.70;99.90
23371;DHT22;11858;51.056;3.712;2024-01-25T08:06:21;6.70;99.90
23371;DHT22;11858;51.056;3.712;2024-01-25T08:08:48;6.70;99.90
23371;DHT22;11858;51.056;3.712;2024-01-25T08:11:13;6.70;99.90
23371;DHT22;11858;51.056;3.712;2024-01-25T08:13:42;6.70;99.90
23371;DHT22;11858;51.056;3.712;2024-01-25T08:16:11;6.70;99.90
23371;DHT22;11858;51.056;3.712;2024-01-25T08:18:37;6.70;99.90
23371;DHT22;11858;51.056;3.712;2024-01-25T08:21:03;6.70;99.90
23371;DHT22;11858;51.056;3.712;2024-01-25T08:23:29;6.80;99.90
23371;DHT22;11858;51.056;3.712;2024-01-25T08:25:54;6.90;99.90
23371;DHT22;11858;51.056;3.712;2024-01-25T08:28:20;6.90;99.90
23371;DHT22;11858;51.056;3.712;2024-01-25T08:30:47;6.80;99.90
23371;DHT22;11858;51.056;3.712;2024-01-25T08:33:13;6.70;99.90
23371;DHT22;11858;51.056;3.712;2024-01-25T08:35:39;6.60;99.90
23371;DHT22;11858;51.056;3.712;2024-01-25T08:38:06;6.70;99.90
23371;DHT22;11858;51.056;3.712;2024-01-25T08:40:32;6.80;99.90
23371;DHT22;11858;51.056;3.712;2024-01-25T08:42:58;6.80;99.90
23371;DHT22;11858;51.056;3.712;2024-01-25T08:45:24;6.90;99.90
23371;DHT22;11858;51.056;3.712;2024-01-25T08:47:50;7.00;99.90
23371;DHT22;11858;51.056;3.712;2024-01-25T08:50:16;6.90;99.90
23371;DHT22;11858;51.056;3.712;2024-01-25T08:52:43;7.00;99.90
23371;DHT22;11858;51.056;3.712;2024-01-25T08:55:09;7.10;99.90
23371;DHT22;11858;51.056;3.712;2024-01-25T08:57:35;7.10;99.90
23371;DHT22;11858;51.056;3.712;2024-01-25T09:00:02;7.20;99.90
23371;DHT22;11858;51.056;3.712;2024-01-25T09:02:27;7.10;99.90
23371;DHT22;11858;51.056;3.712;2024-01-25T09:04:55;7.30;99.90
23371;DHT22;11858;51.056;3.712;2024-01-25T09:07:21;7.40;99.90
23371;DHT22;11858;51.056;3.712;2024-01-25T09:09:48;7.40;99.90
23371;DHT22;11858;51.056;3.712;2024-01-25T09:12:14;7.40;99.90
23371;DHT22;11858;51.056;3.712;2024-01-25T09:14:40;7.50;99.90
23371;DHT22;11858;51.056;3.712;2024-01-25T09:17:05;7.50;99.90
23371;DHT22;11858;51.056;3.712;2024-01-25T09:19:31;7.60;99.90
23371;DHT22;11858;51.056;3.712;2024-01-25T09:21:57;7.60;99.90
23371;DHT22;11858;51.056;3.712;2024-01-25T09:24:26;7.80;99.90
23371;DHT22;11858;51.056;3.712;2024-01-25T09:26:52;7.80;99.90
23371;DHT22;11858;51.056;3.712;2024-01-25T09:29:17;7.80;99.90
23371;DHT22;11858;51.056;3.712;2024-01-25T09:31:43;7.90;99.90
23371;DHT22;11858;51.056;3.712;2024-01-25T09:34:09;8.10;99.90
23371;DHT22;11858;51.056;3.712;2024-01-25T09:36:34;8.20;99.90
23371;DHT22;11858;51.056;3.712;2024-01-25T09:39:00;8.30;99.90
23371;DHT22;11858;51.056;3.712;2024-01-25T09:41:26;8.40;99.90
23371;DHT22;11858;51.056;3.712;2024-01-25T09:43:52;8.50;99.90
23371;DHT22;11858;51.056;3.712;2024-01-25T09:46:18;8.50;99.90
23371;DHT22;11858;51.056;3.712;2024-01-25T09:48:44;8.50;99.90
23371;DHT22;11858;51.056;3.712;2024-01-25T09:51:12;8.50;99.90
23371;DHT22;11858;51.056;3.712;2024-01-25T09:53:39;8.60;99.90
23371;DHT22;11858;51.056;3.712;2024-01-25T09:56:08;8.50;99.90
23371;DHT22;11858;51.056;3.712;2024-01-25T09:58:39;8.50;99.90
23371;DHT22;11858;51.056;3.712;2024-01-25T10:01:08;8.40;99.90
23371;DHT22;11858;51.056;3.712;2024-01-25T10:03:35;8.30;99.90
23371;DHT22;11858;51.056;3.712;2024-01-25T10:06:01;8.40;99.90
23371;DHT22;11858;51.056;3.712;2024-01-25T10:08:27;8.30;99.90
23371;DHT22;11858;51.056;3.712;2024-01-25T10:10:53;8.30;99.90
23371;DHT22;11858;51.056;3.712;2024-01-25T10:13:19;8.30;99.90
23371;DHT22;11858;51.056;3.712;2024-01-25T10:15:45;8.20;99.90
23371;DHT22;11858;51.056;3.712;2024-01-25T10:18:13;8.30;99.90
23371;DHT22;11858;51.056;3.712;2024-01-25T10:20:41;8.40;99.90
23371;DHT22;11858;51.056;3.712;2024-01-25T10:23:07;8.50;99.90
23371;DHT22;11858;51.056;3.712;2024-01-25T10:25:37;8.40;99.90
23371;DHT22;11858;51.056;3.712;2024-01-25T10:28:06;8.40;99.90
23371;DHT22;11858;51.056;3.712;2024-01-25T10:30:33;8.40;99.90
23371;DHT22;11858;51.056;3.712;2024-01-25T10:33:00;8.50;99.90
23371;DHT22;11858;51.056;3.712;2024-01-25T10:35:26;8.70;99.90
23371;DHT22;11858;51.056;3.712;2024-01-25T10:37:53;8.50;99.90
23371;DHT22;11858;51.056;3.712;2024-01-25T10:40:20;8.60;99.90
23371;DHT22;11858;51.056;3.712;2024-01-25T10:42:46;8.50;99.90
23371;DHT22;11858;51.056;3.712;2024-01-25T10:45:12;8.40;99.90
23371;DHT22;11858;51.056;3.712;2024-01-25T10:47:38;8.50;99.90
23371;DHT22;11858;51.056;3.712;2024-01-25T10:50:07;8.60;99.90
23371;DHT22;11858;51.056;3.712;2024-01-25T10:52:37;8.60;99.90
23371;DHT22;11858;51.056;3.712;2024-01-25T10:55:05;8.70;99.90
23371;DHT22;11858;51.056;3.712;2024-01-25T10:57:43;8.70;99.90
23371;DHT22;11858;51.056;3.712;2024-01-25T11:00:13;8.80;99.90
23371;DHT22;11858;51.056;3.712;2024-01-25T11:02:44;8.80;99.90
23371;DHT22;11858;51.056;3.712;2024-01-25T11:05:15;8.90;99.90
23371;DHT22;11858;51.056;3.712;2024-01-25T11:07:48;8.90;99.90
23371;DHT22;11858;51.056;3.712;2024-01-25T11:10:18;9.00;99.90
23371;DHT22;11858;51.056;3.712;2024-01-25T11:12:51;9.20;99.90
23371;DHT22;11858;51.056;3.712;2024-01-25T11:15:29;9.20;99.90
23371;DHT22;11858;51.056;3.712;2024-01-25T11:17:55;9.30;99.90
23371;DHT22;11858;51.056;3.712;2024-01-25T11:20:30;9.30;99.90
23371;DHT22;11858;51.056;3.712;2024-01-25T11:23:01;9.30;99.90
23371;DHT22;11858;51.056;3.712;2024-01-25T11:25:28;9.40;99.90
23371;DHT22;11858;51.056;3.712;2024-01-25T11:27:55;9.60;99.90
23371;DHT22;11858;51.056;3.712;2024-01-25T11:30:21;9.60;99.90
23371;DHT22;11858;51.056;3.712;2024-01-25T11:32:47;9.60;99.90
23371;DHT22;11858;51.056;3.712;2024-01-25T11:35:13;9.30;99.90
23371;DHT22;11858;51.056;3.712;2024-01-25T11:37:43;9.40;99.90
23371;DHT22;11858;51.056;3.712;2024-01-25T11:40:10;9.40;99.90
23371;DHT22;11858;51.056;3.712;2024-01-25T11:42:36;9.40;99.90
23371;DHT22;11858;51.056;3.712;2024-01-25T11:45:03;9.50;99.90
23371;DHT22;11858;51.056;3.712;2024-01-25T11:47:30;9.60;99.90
23371;DHT22;11858;51.056;3.712;2024-01-25T11:49:56;9.70;99.90
23371;DHT22;11858;51.056;3.712;2024-01-25T11:52:21;9.70;99.90
23371;DHT22;11858;51.056;3.712;2024-01-25T11:54:47;9.60;99.90
23371;DHT22;11858;51.056;3.712;2024-01-25T11:57:13;9.60;99.90
23371;DHT22;11858;51.056;3.712;2024-01-25T11:59:38;9.60;99.90
23371;DHT22;11858;51.056;3.712;2024-01-25T12:02:04;9.70;99.90
23371;DHT22;11858;51.056;3.712;2024-01-25T12:04:30;9.70;99.90
23371;DHT22;11858;51.056;3.712;2024-01-25T12:06:55;9.80;99.90
23371;DHT22;11858;51.056;3.712;2024-01-25T12:09:21;9.70;99.90
23371;DHT22;11858;51.056;3.712;2024-01-25T12:11:49;9.70;99.90
23371;DHT22;11858;51.056;3.712;2024-01-25T12:14:16;9.60;99.90
23371;DHT22;11858;51.056;3.712;2024-01-25T12:16:42;9.90;99.90
23371;DHT22;11858;51.056;3.712;2024-01-25T12:19:08;9.90;99.90
23371;DHT22;11858;51.056;3.712;2024-01-25T12:21:34;9.90;99.90
23371;DHT22;11858;51.056;3.712;2024-01-25T12:24:00;9.90;99.90
23371;DHT22;11858;51.056;3.712;2024-01-25T12:26:26;10.00;99.90
23371;DHT22;11858;51.056;3.712;2024-01-25T12:28:51;10.10;99.90
23371;DHT22;11858;51.056;3.712;2024-01-25T12:31:17;10.10;99.90
23371;DHT22;11858;51.056;3.712;2024-01-25T12:33:43;10.30;99.90
23371;DHT22;11858;51.056;3.712;2024-01-25T12:36:09;10.10;99.90
23371;DHT22;11858;51.056;3.712;2024-01-25T12:38:35;10.20;99.90
23371;DHT22;11858;51.056;3.712;2024-01-25T12:41:01;10.20;99.90
23371;DHT22;11858;51.056;3.712;2024-01-25T12:43:26;10.30;99.90
23371;DHT22;11858;51.056;3.712;2024-01-25T12:45:52;10.40;99.90
23371;DHT22;11858;51.056;3.712;2024-01-25T12:48:18;10.50;99.90
23371;DHT22;11858;51.056;3.712;2024-01-25T12:50:44;10.50;99.90
23371;DHT22;11858;51.056;3.712;2024-01-25T12:53:13;10.50;99.90
23371;DHT22;11858;51.056;3.712;2024-01-25T12:55:39;10.50;99.90
23371;DHT22;11858;51.056;3.712;2024-01-25T12:58:05;10.50;99.90
23371;DHT22;11858;51.056;3.712;2024-01-25T13:00:31;10.40;99.90
23371;DHT22;11858;51.056;3.712;2024-01-25T13:02:58;10.40;99.90
23371;DHT22;11858;51.056;3.712;2024-01-25T13:05:24;10.40;99.90
23371;DHT22;11858;51.056;3.712;2024-01-25T13:07:50;10.60;99.90
23371;DHT22;11858;51.056;3.712;2024-01-25T13:10:16;10.70;99.90
23371;DHT22;11858;51.056;3.712;2024-01-25T13:12:41;10.60;99.90
23371;DHT22;11858;51.056;3.712;2024-01-25T13:15:07;10.70;99.90
23371;DHT22;11858;51.056;3.712;2024-01-25T13:17:36;10.80;99.90
23371;DHT22;11858;51.056;3.712;2024-01-25T13:20:05;10.70;99.90
23371;DHT22;11858;51.056;3.712;2024-01-25T13:22:32;10.80;99.90
23371;DHT22;11858;51.056;3.712;2024-01-25T13:25:02;10.80;99.90
23371;DHT22;11858;51.056;3.712;2024-01-25T13:27:28;10.80;99.90
23371;DHT22;11858;51.056;3.712;2024-01-25T13:29:54;10.90;99.90
23371;DHT22;11858;51.056;3.712;2024-01-25T13:32:21;10.90;99.90
23371;DHT22;11858;51.056;3.712;2024-01-25T13:34:47;10.80;99.90
23371;DHT22;11858;51.056;3.712;2024-01-25T13:37:13;10.80;99.90
23371;DHT22;11858;51.056;3.712;2024-01-25T13:39:38;10.80;99.90
23371;DHT22;11858;51.056;3.712;2024-01-25T13:42:04;10.70;99.90
23371;DHT22;11858;51.056;3.712;2024-01-25T13:44:30;10.70;99.90
23371;DHT22;11858;51.056;3.712;2024-01-25T13:46:55;10.80;99.90
23371;DHT22;11858;51.056;3.712;2024-01-25T13:49:22;10.90;99.90
23371;DHT22;11858;51.056;3.712;2024-01-25T13:51:47;11.00;99.90
23371;DHT22;11858;51.056;3.712;2024-01-25T13:54:13;11.00;99.90
23371;DHT22;11858;51.056;3.712;2024-01-25T13:56:38;11.00;99.90
23371;DHT22;11858;51.056;3.712;2024-01-25T13:59:05;10.90;99.90
23371;DHT22;11858;51.056;3.712;2024-01-25T14:01:31;11.00;99.90
23371;DHT22;11858;51.056;3.712;2024-01-25T14:03:57;10.90;99.90
23371;DHT22;11858;51.056;3.712;2024-01-25T14:06:23;11.00;99.90
23371;DHT22;11858;51.056;3.712;2024-01-25T14:08:48;10.90;99.90
23371;DHT22;11858;51.056;3.712;2024-01-25T14:11:15;10.90;99.90
23371;DHT22;11858;51.056;3.712;2024-01-25T14:13:41;10.90;99.90
23371;DHT22;11858;51.056;3.712;2024-01-25T14:16:07;11.00;99.90
23371;DHT22;11858;51.056;3.712;2024-01-25T14:18:37;11.00;99.90
23371;DHT22;11858;51.056;3.712;2024-01-25T14:21:05;11.10;99.90
23371;DHT22;11858;51.056;3.712;2024-01-25T14:23:32;11.10;99.90
23371;DHT22;11858;51.056;3.712;2024-01-25T14:25:58;11.20;99.90
23371;DHT22;11858;51.056;3.712;2024-01-25T14:28:23;11.20;99.90
23371;DHT22;11858;51.056;3.712;2024-01-25T14:30:49;11.30;99.90
23371;DHT22;11858;51.056;3.712;2024-01-25T14:33:14;11.30;99.90
23371;DHT22;11858;51.056;3.712;2024-01-25T14:35:40;11.20;99.90
23371;DHT22;11858;51.056;3.712;2024-01-25T14:38:06;11.20;99.90
23371;DHT22;11858;51.056;3.712;2024-01-25T14:40:32;11.20;99.90
23371;DHT22;11858;51.056;3.712;2024-01-25T14:42:57;11.10;99.90
23371;DHT22;11858;51.056;3.712;2024-01-25T14:45:23;11.20;99.90
23371;DHT22;11858;51.056;3.712;2024-01-25T14:47:49;11.30;99.90
23371;DHT22;11858;51.056;3.712;2024-01-25T14:50:15;11.40;99.90
23371;DHT22;11858;51.056;3.712;2024-01-25T14:52:40;11.40;99.90
23371;DHT22;11858;51.056;3.712;2024-01-25T14:55:06;11.40;99.90
23371;DHT22;11858;51.056;3.712;2024-01-25T14:57:32;11.50;99.90
23371;DHT22;11858;51.056;3.712;2024-01-25T14:59:58;11.50;99.90
23371;DHT22;11858;51.056;3.712;2024-01-25T15:02:23;11.50;99.90
23371;DHT22;11858;51.056;3.712;2024-01-25T15:04:49;11.50;99.90
23371;DHT22;11858;51.056;3.712;2024-01-25T15:07:16;11.60;99.90
23371;DHT22;11858;51.056;3.712;2024-01-25T15:09:47;11.60;99.90
23371;DHT22;11858;51.056;3.712;2024-01-25T15:12:13;11.60;99.90
23371;DHT22;11858;51.056;3.712;2024-01-25T15:14:39;11.50;99.90
23371;DHT22;11858;51.056;3.712;2024-01-25T15:17:04;11.50;99.90
23371;DHT22;11858;51.056;3.712;2024-01-25T15:19:30;11.40;99.90
23371;DHT22;11858;51.056;3.712;2024-01-25T15:21:55;11.40;99.90
23371;DHT22;11858;51.056;3.712;2024-01-25T15:24:21;11.40;99.90
23371;DHT22;11858;51.056;3.712;2024-01-25T15:26:47;11.50;99.90
23371;DHT22;11858;51.056;3.712;2024-01-25T15:29:12;11.50;99.90
23371;DHT22;11858;51.056;3.712;2024-01-25T15:31:38;11.60;99.90
23371;DHT22;11858;51.056;3.712;2024-01-25T15:34:04;11.50;99.90
23371;DHT22;11858;51.056;3.712;2024-01-25T15:36:29;11.50;99.90